Time;durP1;ratioP1;P1;durP2;ratioP2;P2;SDS_P1;SDS_P2;PMS_P1;PMS_P2;Temp;Humidity;BMP_temperature;BMP_pressure;BME280_temperature;BME280_humidity;BME280_pressure;Samples;Min_cycle;Max_cycle;Signal;HPM_P1;HPM_P2
2023/08/02 00:01:33;;;;;;;9.50;5.00;;;;;;;18.32;100.00;99317.58;105781;1259;97999;-78
2023/08/02 00:04:19;;;;;;;6.90;4.80;;;;;;;18.31;100.00;99332.38;105865;1262;101357;-78
2023/08/02 00:07:05;;;;;;;7.20;5.10;;;;;;;18.29;100.00;99335.07;105675;1259;99147;-78
2023/08/02 00:09:51;;;;;;;9.90;5.10;;;;;;;18.26;100.00;99334.96;105845;1262;106445;-78
2023/08/02 00:12:36;;;;;;;6.50;5.10;;;;;;;18.27;100.00;99335.13;105740;1265;97966;-78
2023/08/02 00:15:22;;;;;;;6.20;4.60;;;;;;;18.28;100.00;99334.84;105895;1258;98430;-78
2023/08/02 00:18:08;;;;;;;8.30;5.60;;;;;;;18.26;100.00;99334.48;105782;1264;102762;-77
2023/08/02 00:20:53;;;;;;;9.10;5.50;;;;;;;18.26;100.00;99334.25;105905;1259;99966;-78
2023/08/02 00:23:39;;;;;;;7.60;5.20;;;;;;;18.26;100.00;99335.23;105743;1262;98912;-78
2023/08/02 00:26:25;;;;;;;7.90;5.70;;;;;;;18.25;100.00;99333.17;105958;1262;99126;-78
2023/08/02 00:29:10;;;;;;;8.00;5.20;;;;;;;18.22;100.00;99333.44;105896;1262;97969;-78
2023/08/02 00:31:56;;;;;;;7.20;5.20;;;;;;;18.21;100.00;99333.38;105762;1262;101365;-78
2023/08/02 00:34:41;;;;;;;9.30;5.10;;;;;;;18.20;100.00;99337.65;105748;1259;99811;-78
2023/08/02 00:37:27;;;;;;;7.70;5.10;;;;;;;18.20;100.00;99341.23;105903;1257;98021;-78
2023/08/02 00:40:12;;;;;;;8.50;5.60;;;;;;;18.20;100.00;99341.49;105925;1257;97884;-78
2023/08/02 00:42:58;;;;;;;8.10;5.00;;;;;;;18.22;100.00;99346.06;105784;1259;101639;-79
2023/08/02 00:45:43;;;;;;;6.60;4.80;;;;;;;18.22;100.00;99349.65;105961;1262;102177;-79
2023/08/02 00:48:29;;;;;;;10.20;5.30;;;;;;;18.20;100.00;99349.60;105942;1261;100481;-78
2023/08/02 00:51:17;;;;;;;7.70;4.80;;;;;;;18.18;100.00;99343.66;105904;1259;98739;-78
2023/08/02 00:54:04;;;;;;;9.00;5.10;;;;;;;18.16;100.00;99341.92;105997;1259;97876;-78
2023/08/02 00:56:50;;;;;;;5.80;4.80;;;;;;;18.13;100.00;99338.18;108228;1260;95384;-79
2023/08/02 00:59:38;;;;;;;6.80;5.20;;;;;;;18.12;100.00;99336.77;107603;1259;102141;-78
2023/08/02 01:02:24;;;;;;;7.80;5.30;;;;;;;18.11;100.00;99345.70;106108;1259;99149;-78
2023/08/02 01:05:11;;;;;;;5.60;5.00;;;;;;;18.09;100.00;99356.27;105898;1261;107681;-77
2023/08/02 01:08:01;;;;;;;7.80;5.70;;;;;;;18.04;100.00;99360.16;105930;1259;98509;-78
2023/08/02 01:11:23;;;;;;;7.40;5.50;;;;;;;18.03;100.00;99364.09;105854;1258;98038;-78
2023/08/02 01:14:13;;;;;;;5.40;4.90;;;;;;;18.03;100.00;99373.09;105930;1262;101417;-78
2023/08/02 01:16:59;;;;;;;6.90;5.10;;;;;;;18.04;100.00;99371.96;108258;1258;99139;-79
2023/08/02 01:19:44;;;;;;;7.80;4.70;;;;;;;18.04;100.00;99372.79;105741;1259;97914;-78
2023/08/02 01:22:30;;;;;;;6.40;4.80;;;;;;;18.03;100.00;99369.58;105687;1264;97983;-78
2023/08/02 01:25:16;;;;;;;6.90;4.90;;;;;;;18.02;100.00;99371.67;105916;1258;98409;-78
2023/08/02 01:28:11;;;;;;;5.90;5.20;;;;;;;18.01;100.00;99371.19;105884;1262;101358;-77
2023/08/02 01:30:57;;;;;;;8.40;4.40;;;;;;;18.00;100.00;99373.08;105947;1259;99158;-78
2023/08/02 01:33:49;;;;;;;7.50;5.00;;;;;;;17.95;100.00;99372.41;105768;1263;98087;-77
2023/08/02 01:36:34;;;;;;;6.90;5.00;;;;;;;17.95;100.00;99368.45;105862;1259;99139;-78
2023/08/02 01:39:20;;;;;;;7.70;4.80;;;;;;;17.97;100.00;99369.66;105894;1257;98489;-78
2023/08/02 01:42:05;;;;;;;7.80;4.80;;;;;;;17.95;100.00;99367.75;105897;1261;102690;-77
2023/08/02 01:44:51;;;;;;;7.40;5.00;;;;;;;17.95;100.00;99369.00;105705;1259;99245;-78
2023/08/02 01:47:36;;;;;;;10.20;5.10;;;;;;;17.94;100.00;99368.12;105888;1260;98128;-78
2023/08/02 01:50:22;;;;;;;8.50;5.10;;;;;;;17.91;100.00;99368.70;105776;1258;98016;-78
2023/08/02 01:53:07;;;;;;;7.00;5.00;;;;;;;17.87;100.00;99368.91;105818;1260;98611;-77
2023/08/02 01:55:53;;;;;;;8.90;5.20;;;;;;;17.85;100.00;99369.38;106042;1259;101396;-79
2023/08/02 01:58:39;;;;;;;6.70;4.80;;;;;;;17.83;100.00;99367.47;105908;1262;99103;-78
2023/08/02 02:01:24;;;;;;;11.20;5.20;;;;;;;17.82;100.00;99364.38;105877;1259;97990;-78
2023/08/02 02:04:10;;;;;;;7.20;4.70;;;;;;;17.82;100.00;99364.45;105744;1264;97985;-78
2023/08/02 02:06:55;;;;;;;5.50;4.50;;;;;;;17.81;99.98;99368.02;105934;1262;98543;-78
2023/08/02 02:09:40;;;;;;;9.00;5.20;;;;;;;17.80;99.90;99368.45;105715;1262;101521;-78
2023/08/02 02:12:27;;;;;;;7.00;4.80;;;;;;;17.78;99.92;99372.54;106438;1259;99160;-79
2023/08/02 02:15:12;;;;;;;10.30;4.50;;;;;;;17.76;99.78;99375.56;106720;1259;98470;-79
2023/08/02 02:17:58;;;;;;;6.30;4.10;;;;;;;17.75;99.65;99377.95;106387;1257;97863;-78
2023/08/02 02:20:43;;;;;;;8.50;4.70;;;;;;;17.75;99.37;99383.04;106382;1262;98495;-79
2023/08/02 02:23:28;;;;;;;9.00;4.10;;;;;;;17.72;98.86;99389.63;105839;1260;102955;-78
2023/08/02 02:26:14;;;;;;;8.90;4.30;;;;;;;17.68;98.64;99396.44;105891;1259;99436;-78
2023/08/02 02:29:00;;;;;;;7.10;4.20;;;;;;;17.64;98.50;99392.13;105847;1259;97942;-78
2023/08/02 02:31:45;;;;;;;5.40;4.00;;;;;;;17.61;98.39;99390.38;105895;1258;98597;-78
2023/08/02 02:34:31;;;;;;;10.60;4.00;;;;;;;17.59;98.16;99389.23;105979;1260;98490;-78
2023/08/02 02:37:16;;;;;;;8.20;4.20;;;;;;;17.56;98.10;99391.53;105808;1258;102087;-79
2023/08/02 02:40:02;;;;;;;5.30;3.90;;;;;;;17.52;98.23;99387.88;105829;1262;99108;-77
2023/08/02 02:42:47;;;;;;;8.00;4.10;;;;;;;17.50;98.09;99386.60;105851;1260;98701;-78
2023/08/02 02:45:33;;;;;;;7.90;3.90;;;;;;;17.46;97.61;99386.30;105811;1262;99043;-77
2023/08/02 02:48:19;;;;;;;5.80;3.80;;;;;;;17.42;97.45;99384.87;105722;1257;97881;-77
2023/08/02 02:51:05;;;;;;;5.60;4.00;;;;;;;17.38;97.18;99386.30;105917;1262;101458;-77
2023/08/02 02:53:50;;;;;;;4.40;3.70;;;;;;;17.33;97.06;99389.23;105648;1262;99200;-78
2023/08/02 02:56:36;;;;;;;7.20;4.20;;;;;;;17.28;97.11;99386.12;105719;1262;98199;-78
2023/08/02 02:59:22;;;;;;;7.40;4.20;;;;;;;17.26;97.13;99387.98;105914;1262;98077;-77
2023/08/02 03:02:07;;;;;;;9.40;4.40;;;;;;;17.23;97.12;99389.75;105746;1262;97986;-78
2023/08/02 03:04:52;;;;;;;6.20;4.30;;;;;;;17.21;97.17;99392.28;105742;1260;101305;-78
2023/08/02 03:07:38;;;;;;;5.20;4.50;;;;;;;17.18;97.03;99392.80;105830;1262;100198;-78
2023/08/02 03:10:24;;;;;;;8.30;4.10;;;;;;;17.15;96.94;99391.15;105869;1262;98060;-78
2023/08/02 03:13:10;;;;;;;7.60;4.20;;;;;;;17.12;97.07;99394.70;105878;1262;97971;-79
2023/08/02 03:15:55;;;;;;;6.80;4.80;;;;;;;17.11;97.12;99393.66;105800;1262;97973;-79
2023/08/02 03:18:41;;;;;;;4.60;3.70;;;;;;;17.10;97.21;99396.73;105838;1262;101906;-78
2023/08/02 03:21:26;;;;;;;7.70;4.40;;;;;;;17.09;97.08;99402.13;105840;1260;99212;-78
2023/08/02 03:24:12;;;;;;;6.10;4.30;;;;;;;17.07;97.06;99409.69;105906;1262;98479;-78
2023/08/02 03:26:58;;;;;;;6.80;4.50;;;;;;;17.04;96.83;99410.69;105942;1264;98038;-78
2023/08/02 03:29:43;;;;;;;8.70;3.90;;;;;;;17.02;97.04;99414.30;105812;1262;99186;-78
2023/08/02 03:32:29;;;;;;;6.40;4.00;;;;;;;17.00;97.07;99417.48;105708;1262;102747;-78
2023/08/02 03:35:14;;;;;;;9.40;4.50;;;;;;;16.98;97.05;99420.28;105692;1259;99138;-79
2023/08/02 03:38:00;;;;;;;6.00;4.70;;;;;;;16.98;97.08;99419.70;106400;1262;98389;-79
2023/08/02 03:40:46;;;;;;;11.10;4.50;;;;;;;16.98;97.13;99422.77;105462;1262;97979;-78
2023/08/02 03:43:31;;;;;;;10.20;5.10;;;;;;;16.98;97.42;99422.92;105492;1262;99548;-78
2023/08/02 03:46:17;;;;;;;8.50;4.50;;;;;;;16.98;97.40;99426.55;105801;1262;101426;-78
2023/08/02 03:49:02;;;;;;;6.70;4.70;;;;;;;16.99;97.97;99429.70;105772;1262;99168;-78
2023/08/02 03:51:48;;;;;;;6.50;4.50;;;;;;;17.02;98.06;99429.73;105555;1264;99069;-79
2023/08/02 03:54:34;;;;;;;10.50;5.50;;;;;;;17.04;98.24;99433.80;105954;1262;97886;-80
2023/08/02 03:57:19;;;;;;;9.10;4.40;;;;;;;17.04;98.73;99436.56;106875;1258;98489;-78
2023/08/02 04:00:05;;;;;;;7.30;4.30;;;;;;;17.03;99.07;99437.48;105444;1262;101351;-78
2023/08/02 04:02:57;;;;;;;6.10;4.70;;;;;;;17.05;99.46;99438.84;105814;1257;100445;-78
2023/08/02 04:05:43;;;;;;;8.40;4.60;;;;;;;17.07;99.53;99438.32;105963;1262;98005;-79
2023/08/02 04:08:29;;;;;;;6.30;4.90;;;;;;;17.06;99.71;99441.98;105659;1262;98057;-77
2023/08/02 04:11:14;;;;;;;8.50;4.80;;;;;;;17.07;99.91;99443.09;105288;1262;97869;-78
2023/08/02 04:14:00;;;;;;;7.30;4.30;;;;;;;17.07;100.00;99444.61;105430;1262;101350;-77
2023/08/02 04:16:45;;;;;;;7.70;5.10;;;;;;;17.06;100.00;99449.02;105756;1262;100395;-77
2023/08/02 04:19:31;;;;;;;7.90;4.80;;;;;;;17.04;100.00;99444.90;105885;1262;98977;-77
2023/08/02 04:22:16;;;;;;;7.70;5.20;;;;;;;17.06;100.00;99445.40;105833;1261;98111;-78
2023/08/02 04:25:03;;;;;;;8.40;5.40;;;;;;;17.08;100.00;99444.01;105786;1262;98516;-78
2023/08/02 04:27:48;;;;;;;4.80;4.30;;;;;;;17.09;100.00;99441.10;105782;1262;101999;-78
2023/08/02 04:30:34;;;;;;;9.00;5.50;;;;;;;17.12;100.00;99437.50;105728;1262;99269;-77
2023/08/02 04:33:20;;;;;;;11.60;6.70;;;;;;;17.16;100.00;99441.16;105749;1259;98732;-77
2023/08/02 04:36:05;;;;;;;8.20;5.50;;;;;;;17.18;100.00;99439.95;105638;1262;98073;-77
2023/08/02 04:38:52;;;;;;;10.00;5.40;;;;;;;17.23;100.00;99433.65;105699;1257;98406;-78
2023/08/02 04:41:38;;;;;;;8.70;5.40;;;;;;;17.27;100.00;99435.69;105731;1259;101418;-78
2023/08/02 04:44:24;;;;;;;11.00;5.50;;;;;;;17.31;100.00;99443.52;105695;1262;99216;-79
2023/08/02 04:47:09;;;;;;;10.80;5.50;;;;;;;17.33;100.00;99445.38;105823;1261;97908;-77
2023/08/02 04:49:58;;;;;;;9.10;5.00;;;;;;;17.36;100.00;99442.75;105620;1258;97968;-78
2023/08/02 04:52:43;;;;;;;7.90;4.40;;;;;;;17.41;100.00;99446.36;105753;1257;97941;-78
2023/08/02 04:55:29;;;;;;;6.40;3.60;;;;;;;17.46;100.00;99450.84;105769;1264;101464;-77
2023/08/02 04:58:14;;;;;;;7.90;4.30;;;;;;;17.50;100.00;99450.67;105836;1262;100295;-78
2023/08/02 05:01:01;;;;;;;6.30;4.70;;;;;;;17.53;100.00;99448.80;105958;1262;99036;-78
2023/08/02 05:03:47;;;;;;;6.40;4.80;;;;;;;17.58;100.00;99454.20;105972;1262;97893;-78
2023/08/02 05:06:33;;;;;;;6.80;4.20;;;;;;;17.60;100.00;99459.58;105850;1262;98571;-77
2023/08/02 05:09:19;;;;;;;5.70;4.60;;;;;;;17.61;100.00;99462.30;105821;1263;101372;-80
2023/08/02 05:12:05;;;;;;;7.40;4.90;;;;;;;17.63;100.00;99461.29;105859;1258;99126;-78
2023/08/02 05:14:50;;;;;;;7.60;4.00;;;;;;;17.68;100.00;99459.98;106100;1263;98753;-78
2023/08/02 05:17:36;;;;;;;8.40;4.50;;;;;;;17.74;100.00;99465.75;105812;1258;97788;-78
2023/08/02 05:20:21;;;;;;;7.70;4.40;;;;;;;17.75;100.00;99466.95;105893;1257;99256;-78
2023/08/02 05:23:07;;;;;;;5.60;4.40;;;;;;;17.77;100.00;99472.38;106789;1262;101694;-80
2023/08/02 05:25:55;;;;;;;5.40;4.50;;;;;;;17.79;100.00;99472.08;106796;1257;99168;-80
2023/08/02 05:28:41;;;;;;;9.20;4.70;;;;;;;17.79;100.00;99469.41;106916;1262;97737;-80
2023/08/02 05:31:26;;;;;;;6.00;4.60;;;;;;;17.78;100.00;99470.92;106351;1259;97968;-79
2023/08/02 05:34:12;;;;;;;9.60;5.10;;;;;;;17.82;100.00;99473.01;105853;1262;99632;-78
2023/08/02 05:36:57;;;;;;;7.80;4.70;;;;;;;17.89;100.00;99467.91;105833;1262;102660;-78
2023/08/02 05:39:43;;;;;;;6.40;4.40;;;;;;;17.97;100.00;99468.98;105908;1262;100350;-78
2023/08/02 05:42:29;;;;;;;7.20;4.50;;;;;;;18.02;100.00;99464.14;105928;1262;98657;-78
2023/08/02 05:45:17;;;;;;;4.90;4.20;;;;;;;18.09;100.00;99461.85;105909;1271;97878;-79
2023/08/02 05:48:03;;;;;;;7.20;4.90;;;;;;;18.14;99.99;99461.83;105493;1262;98126;-78
2023/08/02 05:50:49;;;;;;;5.30;4.10;;;;;;;18.20;99.92;99460.82;105898;1260;102712;-78
2023/08/02 05:53:37;;;;;;;6.70;4.30;;;;;;;18.29;100.00;99461.46;105831;1262;108258;-78
2023/08/02 05:56:23;;;;;;;9.60;4.50;;;;;;;18.38;99.93;99463.30;105954;1262;97974;-80
2023/08/02 05:59:09;;;;;;;6.20;4.20;;;;;;;18.50;99.73;99462.77;106416;1257;97906;-79
2023/08/02 06:01:54;;;;;;;7.90;4.00;;;;;;;18.63;99.92;99465.48;105631;1263;99574;-79
2023/08/02 06:04:43;;;;;;;4.40;3.80;;;;;;;18.76;99.72;99468.45;106185;1257;101284;-78
2023/08/02 06:07:29;;;;;;;6.90;4.90;;;;;;;18.88;98.93;99468.27;106137;1258;99082;-79
2023/08/02 06:10:14;;;;;;;6.90;3.90;;;;;;;19.00;99.02;99470.79;105409;1266;97942;-78
2023/08/02 06:12:59;;;;;;;7.20;3.60;;;;;;;19.10;98.55;99476.66;105523;1264;99248;-79
2023/08/02 06:15:45;;;;;;;7.10;3.80;;;;;;;19.20;98.43;99485.86;106074;1263;98595;-79
2023/08/02 06:18:30;;;;;;;5.90;4.00;;;;;;;19.30;97.76;99492.27;105938;1257;101342;-78
2023/08/02 06:21:16;;;;;;;6.60;3.80;;;;;;;19.38;97.14;99493.23;105995;1262;100331;-78
2023/08/02 06:24:02;;;;;;;5.10;4.10;;;;;;;19.47;97.23;99492.70;105478;1262;97986;-78
2023/08/02 06:26:47;;;;;;;7.00;3.60;;;;;;;19.55;96.71;99498.08;105277;1258;98175;-79
2023/08/02 06:29:33;;;;;;;6.50;4.20;;;;;;;19.63;96.17;99502.91;105632;1257;97977;-79
2023/08/02 06:32:19;;;;;;;5.90;3.50;;;;;;;19.68;96.13;99504.38;105847;1262;101365;-80
2023/08/02 06:35:05;;;;;;;4.10;3.50;;;;;;;19.68;95.46;99502.91;105956;1262;99113;-79
2023/08/02 06:37:50;;;;;;;5.50;3.60;;;;;;;19.76;95.39;99502.69;105855;1262;98626;-79
2023/08/02 06:40:36;;;;;;;5.60;3.40;;;;;;;19.85;95.15;99500.41;106396;1261;97906;-79
2023/08/02 06:43:21;;;;;;;6.20;3.70;;;;;;;19.93;95.23;99495.88;106484;1257;97963;-79
2023/08/02 06:46:07;;;;;;;5.80;3.90;;;;;;;19.97;94.12;99496.96;105913;1262;101461;-79
2023/08/02 06:48:52;;;;;;;6.80;3.30;;;;;;;19.98;93.74;99497.73;105907;1263;99070;-79
2023/08/02 06:51:38;;;;;;;4.90;3.20;;;;;;;20.07;93.95;99500.52;105908;1264;99098;-79
2023/08/02 06:54:23;;;;;;;5.00;3.20;;;;;;;20.18;93.80;99504.39;105979;1257;97984;-80
2023/08/02 06:57:09;;;;;;;6.30;3.60;;;;;;;20.24;93.04;99509.65;106162;1262;97857;-79
2023/08/02 06:59:55;;;;;;;6.10;3.60;;;;;;;20.26;92.53;99512.70;106149;1263;101343;-80
2023/08/02 07:02:40;;;;;;;7.20;3.80;;;;;;;20.36;93.23;99514.90;106788;1257;100270;-79
2023/08/02 07:05:28;;;;;;;7.30;3.60;;;;;;;20.38;92.34;99523.28;106149;1257;97960;-80
2023/08/02 07:08:14;;;;;;;4.60;3.60;;;;;;;20.33;91.47;99525.19;106099;1257;97879;-78
2023/08/02 07:10:59;;;;;;;6.50;3.80;;;;;;;20.32;91.17;99522.27;106134;1261;98477;-78
2023/08/02 07:13:45;;;;;;;5.40;3.50;;;;;;;20.27;91.04;99519.66;106176;1262;101426;-80
2023/08/02 07:16:31;;;;;;;5.60;3.30;;;;;;;20.30;91.10;99519.38;106232;1257;100350;-79
2023/08/02 07:19:17;;;;;;;5.70;3.20;;;;;;;20.41;91.71;99522.73;106355;1263;98017;-79
2023/08/02 07:22:02;;;;;;;6.20;2.90;;;;;;;20.55;91.13;99525.99;106292;1263;97961;-80
2023/08/02 07:24:48;;;;;;;3.80;2.20;;;;;;;20.61;89.42;99522.97;107017;1257;97187;-79
2023/08/02 07:27:33;;;;;;;5.30;2.60;;;;;;;20.65;88.32;99519.36;106514;1257;102309;-80
2023/08/02 07:30:20;;;;;;;3.10;2.20;;;;;;;20.66;87.46;99521.88;106379;1257;99245;-79
2023/08/02 07:33:05;;;;;;;6.50;2.20;;;;;;;20.61;87.18;99522.44;106886;1257;98651;-80
2023/08/02 07:35:51;;;;;;;3.20;2.30;;;;;;;20.64;87.25;99525.58;106788;1262;99581;-79
2023/08/02 07:38:36;;;;;;;4.60;2.70;;;;;;;20.71;86.80;99523.48;106822;1262;97959;-80
2023/08/02 07:41:22;;;;;;;3.60;2.50;;;;;;;20.84;87.35;99521.35;106844;1262;101362;-79
2023/08/02 07:44:07;;;;;;;5.80;2.50;;;;;;;21.00;87.51;99518.40;106818;1257;100119;-79
2023/08/02 07:46:53;;;;;;;6.70;2.20;;;;;;;21.06;86.50;99522.73;106725;1263;97986;-79
2023/08/02 07:49:38;;;;;;;2.80;2.50;;;;;;;21.04;86.04;99527.37;106585;1258;163086;-79
2023/08/02 07:52:24;;;;;;;3.10;2.10;;;;;;;21.00;86.05;99528.14;106395;1262;98468;-79
2023/08/02 07:55:09;;;;;;;6.70;2.30;;;;;;;21.08;86.48;99532.85;106917;1257;103139;-80
2023/08/02 07:57:54;;;;;;;2.40;2.20;;;;;;;21.22;86.26;99528.14;107012;1263;99102;-80
2023/08/02 08:00:40;;;;;;;4.20;2.00;;;;;;;21.32;85.75;99529.77;106627;1262;98520;-79
2023/08/02 08:03:26;;;;;;;1.90;1.70;;;;;;;21.38;83.90;99530.80;106319;1264;97854;-79
2023/08/02 08:06:13;;;;;;;4.30;2.00;;;;;;;21.37;82.95;99534.73;106330;1257;98777;-82
2023/08/02 08:09:03;;;;;;;5.60;2.40;;;;;;;21.45;82.47;99539.76;106210;1264;101836;-81
2023/08/02 08:11:48;;;;;;;3.00;1.90;;;;;;;21.58;82.55;99535.95;106378;1257;99117;-81
2023/08/02 08:14:34;;;;;;;2.60;1.60;;;;;;;21.71;82.11;99536.62;106601;1258;97895;-82
2023/08/02 08:17:19;;;;;;;3.50;2.00;;;;;;;21.80;81.06;99536.27;106535;1257;97966;-81
2023/08/02 08:20:05;;;;;;;4.90;2.60;;;;;;;21.87;80.44;99533.57;106420;1260;98533;-81
2023/08/02 08:22:51;;;;;;;2.90;1.70;;;;;;;21.95;80.04;99539.27;106557;1257;101413;-80
2023/08/02 08:25:37;;;;;;;3.60;1.70;;;;;;;22.04;79.35;99541.96;106261;1263;100409;-82
2023/08/02 08:28:22;;;;;;;3.60;2.30;;;;;;;22.13;79.21;99541.88;106283;1257;97887;-82
2023/08/02 08:31:07;;;;;;;3.70;1.40;;;;;;;22.27;79.33;99542.79;106340;1257;98487;-81
2023/08/02 08:33:53;;;;;;;5.70;1.40;;;;;;;22.37;78.13;99547.26;106508;1258;97909;-82
2023/08/02 08:36:39;;;;;;;3.60;1.50;;;;;;;22.42;77.83;99545.84;106769;1257;102307;-81
2023/08/02 08:39:25;;;;;;;2.10;1.30;;;;;;;22.49;76.95;99549.48;106670;1257;100221;-82
2023/08/02 08:42:12;;;;;;;3.10;1.30;;;;;;;22.57;76.39;99551.70;106534;1258;97900;-82
2023/08/02 08:44:59;;;;;;;2.00;1.50;;;;;;;22.59;75.75;99549.06;106496;1262;98451;-82
2023/08/02 08:47:46;;;;;;;5.10;1.40;;;;;;;22.58;75.11;99553.91;106405;1261;98496;-81
2023/08/02 08:50:32;;;;;;;5.00;1.20;;;;;;;22.62;74.86;99548.86;106361;1263;102818;-82
2023/08/02 08:53:28;;;;;;;3.10;1.30;;;;;;;22.64;74.41;99546.94;106196;1257;99198;-81
2023/08/02 08:56:15;;;;;;;4.60;1.20;;;;;;;22.69;74.12;99550.70;106694;1263;97974;-81
2023/08/02 08:59:01;;;;;;;2.80;1.10;;;;;;;22.78;73.31;99549.23;106439;1257;97887;-81
2023/08/02 09:01:47;;;;;;;3.50;2.00;;;;;;;22.83;72.11;99547.46;106447;1263;97873;-81
2023/08/02 09:04:33;;;;;;;1.80;1.30;;;;;;;22.88;71.97;99551.58;106474;1262;101340;-82
2023/08/02 09:07:19;;;;;;;2.40;0.80;;;;;;;22.85;71.37;99556.84;106379;1258;100381;-81
2023/08/02 09:10:06;;;;;;;2.30;1.30;;;;;;;22.71;70.07;99558.98;106578;1260;98483;-81
2023/08/02 09:12:51;;;;;;;5.50;1.20;;;;;;;22.64;69.97;99550.59;106513;1262;97986;-82
2023/08/02 09:15:37;;;;;;;4.50;1.20;;;;;;;22.67;70.04;99547.05;106490;1257;97874;-81
2023/08/02 09:18:37;;;;;;;1.30;0.90;;;;;;;22.76;70.12;99549.31;106458;1262;101928;-81
2023/08/02 09:21:25;;;;;;;1.80;1.30;;;;;;;22.81;69.72;99549.02;106331;1257;100547;-82
2023/08/02 09:24:10;;;;;;;2.10;1.10;;;;;;;22.93;70.13;99542.96;106542;1257;97906;-85
2023/08/02 09:26:56;;;;;;;1.50;1.00;;;;;;;23.06;70.79;99540.02;105844;1264;97963;-83
2023/08/02 09:29:45;;;;;;;5.50;1.10;;;;;;;23.18;69.39;99546.20;106181;1265;98063;-83
2023/08/02 09:32:30;;;;;;;2.30;1.20;;;;;;;23.30;68.75;99547.77;106277;1263;101395;-84
2023/08/02 09:35:16;;;;;;;2.60;1.10;;;;;;;23.43;68.50;99543.66;106089;1257;99121;-82
2023/08/02 09:38:08;;;;;;;2.50;1.20;;;;;;;23.54;67.63;99536.35;105958;1264;98470;-80
2023/08/02 09:40:54;;;;;;;4.40;1.40;;;;;;;23.56;66.51;99539.63;105966;1257;97996;-89
2023/08/02 09:43:44;;;;;;;1.40;1.00;;;;;;;23.55;66.40;99538.79;106419;1264;97971;-83
2023/08/02 09:46:33;;;;;;;3.40;1.50;;;;;;;23.51;65.50;99536.11;106072;1257;101531;-82
2023/08/02 09:49:26;;;;;;;3.70;1.40;;;;;;;23.45;64.81;99530.25;99118;1265;97954;-81
2023/08/02 09:52:26;;;;;;;2.90;1.40;;;;;;;23.43;64.81;99532.86;106252;1259;97886;-82
2023/08/02 09:55:12;;;;;;;1.70;1.20;;;;;;;23.49;65.04;99533.56;106426;1259;98044;-80
2023/08/02 09:57:59;;;;;;;4.30;1.90;;;;;;;23.54;65.27;99535.27;106686;1260;98451;-81
2023/08/02 10:04:15;;;;;;;1.70;1.30;;;;;;;23.45;63.86;99522.65;106183;1261;99575;-84
2023/08/02 10:07:03;;;;;;;3.60;1.50;;;;;;;23.44;64.49;99517.15;105894;1260;98637;-85
2023/08/02 10:09:52;;;;;;;5.30;1.50;;;;;;;23.46;64.24;99516.83;105665;1261;97960;-81
2023/08/02 10:12:49;;;;;;;5.00;1.40;;;;;;;23.45;63.81;99519.97;105965;1260;97772;-86
2023/08/02 10:15:40;;;;;;;5.20;1.30;;;;;;;23.46;64.35;99522.96;105958;1261;101468;-85
2023/08/02 10:18:28;;;;;;;3.20;1.40;;;;;;;23.46;64.63;99518.60;105960;1260;99303;-81
2023/08/02 10:21:15;;;;;;;1.80;1.20;;;;;;;23.40;64.12;99517.81;105830;1260;99012;-84
2023/08/02 10:24:02;;;;;;;1.80;1.10;;;;;;;23.29;63.46;99519.05;105870;1261;97943;-82
2023/08/02 10:26:48;;;;;;;2.60;1.40;;;;;;;23.23;63.92;99517.21;106011;1259;97903;-86
2023/08/02 10:29:35;;;;;;;2.10;1.60;;;;;;;23.32;64.39;99517.59;105798;1261;102767;-82
2023/08/02 10:32:21;;;;;;;1.80;1.30;;;;;;;23.47;64.25;99501.85;106247;1263;107828;-81
2023/08/02 10:35:07;;;;;;;2.20;1.40;;;;;;;23.59;64.48;99499.95;106510;1264;99157;-81
2023/08/02 10:37:54;;;;;;;3.00;1.30;;;;;;;23.76;63.68;99493.48;106561;1261;98484;-81
2023/08/02 10:41:01;;;;;;;5.40;1.50;;;;;;;23.85;62.65;99491.25;106552;1263;98457;-83
2023/08/02 10:44:00;;;;;;;2.20;1.30;;;;;;;23.91;62.07;99484.20;106451;1259;101402;-81
2023/08/02 10:46:46;;;;;;;1.10;1.00;;;;;;;23.95;61.54;99490.20;106463;1261;100356;-82
2023/08/02 10:49:31;;;;;;;3.20;1.40;;;;;;;23.95;61.46;99492.00;106552;1261;99032;-81
2023/08/02 10:52:29;;;;;;;3.90;1.20;;;;;;;23.89;61.29;99486.86;106204;1260;97965;-82
2023/08/02 10:55:16;;;;;;;2.20;1.40;;;;;;;23.84;61.06;99486.29;106488;1259;98353;-80
2023/08/02 10:58:05;;;;;;;5.80;1.40;;;;;;;23.85;61.53;99482.94;106454;1259;101357;-81
2023/08/02 11:01:09;;;;;;;2.30;1.10;;;;;;;23.92;60.96;99481.55;106411;1262;99111;-80
2023/08/02 11:03:56;;;;;;;3.60;1.30;;;;;;;24.02;60.68;99473.45;106331;1261;100040;-81
2023/08/02 11:06:41;;;;;;;5.90;2.10;;;;;;;24.13;59.87;99472.94;106426;1260;97968;-80
2023/08/02 11:09:31;;;;;;;5.60;1.50;;;;;;;24.19;59.20;99474.89;106287;1261;98444;-81
2023/08/02 11:12:18;;;;;;;4.90;1.30;;;;;;;24.29;59.90;99474.47;106389;1264;102004;-81
2023/08/02 11:15:17;;;;;;;4.00;1.60;;;;;;;24.40;59.54;99477.28;106424;1260;99088;-81
2023/08/02 11:18:03;;;;;;;3.20;1.30;;;;;;;24.35;59.21;99476.71;106222;1259;98961;-81
2023/08/02 11:20:48;;;;;;;4.30;1.50;;;;;;;24.33;59.59;99472.54;106326;1261;97899;-81
2023/08/02 11:23:34;;;;;;;2.00;1.30;;;;;;;24.44;59.85;99474.89;106431;1261;97822;-81
2023/08/02 11:26:20;;;;;;;2.00;1.20;;;;;;;24.59;59.65;99470.86;106312;1259;101400;-81
2023/08/02 11:29:08;;;;;;;4.20;1.40;;;;;;;24.72;59.59;99464.02;106589;1262;99394;-82
2023/08/02 11:31:54;;;;;;;2.40;1.40;;;;;;;24.84;58.94;99461.52;106805;1262;99207;-87
2023/08/02 11:34:41;;;;;;;2.40;1.30;;;;;;;24.87;58.55;99463.00;106353;1263;96456;-88
2023/08/02 11:37:28;;;;;;;3.60;2.70;;;;;;;24.87;57.61;99464.86;106049;1259;98076;-83
2023/08/02 11:40:14;;;;;;;3.30;1.50;;;;;;;24.87;57.17;99465.02;105952;1261;101838;-86
2023/08/02 11:43:00;;;;;;;2.80;1.40;;;;;;;24.90;56.58;99458.81;105919;1261;100438;-87
2023/08/02 11:45:47;;;;;;;2.30;1.30;;;;;;;24.86;55.00;99459.83;106102;1259;97918;-89
2023/08/02 11:48:33;;;;;;;2.50;1.20;;;;;;;24.72;54.82;99452.95;106039;1266;98119;-82
2023/08/02 11:51:20;;;;;;;4.90;1.70;;;;;;;24.64;55.36;99450.16;106223;1260;97898;-82
2023/08/02 11:54:07;;;;;;;3.50;1.30;;;;;;;24.57;55.14;99451.95;106287;1260;101298;-85
2023/08/02 11:56:53;;;;;;;2.40;1.40;;;;;;;24.53;55.08;99451.54;106135;1261;101092;-85
2023/08/02 11:59:39;;;;;;;2.70;1.40;;;;;;;24.61;55.68;99446.68;105918;1267;98077;-83
2023/08/02 12:02:30;;;;;;;4.60;1.20;;;;;;;24.73;55.36;99447.20;105759;1261;98050;-85
2023/08/02 12:05:20;;;;;;;1.80;1.20;;;;;;;24.77;55.00;99447.07;106200;1260;97987;-81
2023/08/02 12:08:10;;;;;;;2.60;1.20;;;;;;;24.72;54.89;99447.54;106357;1261;101465;-87
2023/08/02 12:10:56;;;;;;;2.50;1.30;;;;;;;24.63;54.67;99448.55;106320;1260;100340;-88
2023/08/02 12:13:45;;;;;;;1.40;1.20;;;;;;;24.61;54.83;99444.10;106390;1260;97900;-79
2023/08/02 12:16:41;;;;;;;2.00;1.30;;;;;;;24.71;55.32;99445.37;106771;1262;97993;-80
2023/08/02 12:19:38;;;;;;;2.30;1.40;;;;;;;24.84;55.19;99442.36;106603;1261;98584;-83
2023/08/02 12:22:24;;;;;;;4.10;1.40;;;;;;;24.87;54.40;99438.78;105951;1261;101463;-81
2023/08/02 12:25:09;;;;;;;3.00;1.30;;;;;;;24.90;54.10;99435.21;106350;1261;99245;-79
2023/08/02 12:28:02;;;;;;;2.10;1.40;;;;;;;24.95;54.58;99432.19;105787;1260;97991;-79
2023/08/02 12:31:03;;;;;;;6.10;1.50;;;;;;;24.96;54.83;99429.30;106380;1260;98090;-78
2023/08/02 12:33:49;;;;;;;;;;;;;;;25.05;54.97;99422.13;105885;1261;97859;-79
2023/08/02 12:36:35;;;;;;;3.50;1.90;;;;;;;25.22;54.58;99422.00;105777;1264;102583;-85
2023/08/02 12:39:22;;;;;;;4.60;1.80;;;;;;;25.36;53.59;99424.36;106123;1261;99277;-80
2023/08/02 12:42:08;;;;;;;2.30;1.30;;;;;;;25.44;53.39;99421.38;106203;1260;99075;-86
2023/08/02 12:44:54;;;;;;;3.40;1.40;;;;;;;25.58;53.10;99424.86;106333;1261;97872;-87
2023/08/02 12:47:40;;;;;;;3.20;1.30;;;;;;;25.67;52.64;99423.42;106098;1260;96430;-84
2023/08/02 12:50:26;;;;;;;2.90;1.10;;;;;;;25.64;51.84;99418.28;105915;1262;102668;-87
2023/08/02 12:53:11;;;;;;;2.60;1.20;;;;;;;25.60;51.67;99414.61;106634;1261;99801;-80